Pagina principală
METAR-TAF:

METAR-TAF

Aeroporturi :

Tillamook, Oregon, Statele Unite ale Americii

Latitudine: 45-25-06N, longitudine: 123-48-52W, elevație: 11 m

Observații meteo curente

Raportul a fost făcut în urmă cu 23 de minute, la 16:55 UTC
Vânt 9 kt de la Vest
Temperatură 15°C
Umiditate 100%
Presiune 1021 hPa
Vizibilitate: 16.1 km
Total acoperit la o înălțime de 700 picior

METAR: KTMK 211655Z AUTO 26009KT 10SM OVC007 15/15 A3016 RMK AO2

Ora: 10:18 (17:18 UTC)


TAF: lipsă

Observații și prognoze meteo pentru peste 4.000 de aeroporturi (rapoarte METAR și TAF).

Stațiile disponibile sunt reprezentate pe hartă prin puncte galbene și roșii.

Țineți indicatorul mouse-ului pe punctul dorit pentru a vedea denumirea stației.

Apoi, faceți clic pentru a vedea observațiile și prognozele meteorologice.

Pentru a schimba harta: Pentru mărire, faceți clic pe butoanele verzi cu cruce neagră; pentru micșorare, pe butonul verde cu o liniuță; pentru hărți învecinate, pe săgețile verzi.


METAR-TAF: